createdAt,value
2022-08-18T00:01:14.422Z,9.70
2022-08-18T00:03:56.000Z,9.90
2022-08-18T00:06:28.594Z,10.10
2022-08-18T00:08:58.114Z,9.30
2022-08-18T00:11:25.988Z,9.80
2022-08-18T00:13:53.016Z,9.90
2022-08-18T00:16:19.894Z,9.50
2022-08-18T00:18:46.958Z,9.40
2022-08-18T00:21:13.908Z,9.20
2022-08-18T00:23:40.860Z,9.00
2022-08-18T00:26:07.933Z,9.70
2022-08-18T00:28:34.861Z,9.70
2022-08-18T00:31:03.950Z,9.10
2022-08-18T00:33:31.226Z,9.90
2022-08-18T00:35:58.339Z,9.90
2022-08-18T00:38:25.606Z,9.70
2022-08-18T00:40:55.379Z,10.00
2022-08-18T00:43:43.626Z,9.60
2022-08-18T00:46:17.855Z,10.80
2022-08-18T00:48:48.906Z,10.70
2022-08-18T00:51:49.285Z,11.30
2022-08-18T00:54:26.919Z,10.70
2022-08-18T00:56:58.394Z,10.40
2022-08-18T00:59:37.768Z,11.30
2022-08-18T01:04:43.093Z,11.60
2022-08-18T01:07:19.939Z,10.50
2022-08-18T01:09:48.444Z,11.40
2022-08-18T01:12:45.694Z,10.20
2022-08-18T01:15:03.012Z,11.10
2022-08-18T01:17:48.484Z,10.40
2022-08-18T01:20:44.966Z,11.30
2022-08-18T01:23:16.656Z,11.60
2022-08-18T01:26:00.693Z,10.50
2022-08-18T01:28:36.711Z,11.00
2022-08-18T01:31:04.798Z,10.80
2022-08-18T01:33:36.104Z,11.30
2022-08-18T01:36:21.144Z,10.70
2022-08-18T01:38:51.759Z,11.90
2022-08-18T01:41:27.719Z,11.50
2022-08-18T01:43:58.129Z,11.40
2022-08-18T01:46:26.456Z,12.40
2022-08-18T01:48:53.438Z,11.70
2022-08-18T01:51:21.378Z,11.50
2022-08-18T01:54:11.138Z,11.50
2022-08-18T01:56:40.237Z,12.50
2022-08-18T01:59:13.981Z,12.00
2022-08-18T02:01:48.906Z,12.00
2022-08-18T02:04:35.035Z,11.40
2022-08-18T02:07:07.155Z,12.30
2022-08-18T02:09:34.614Z,12.20
2022-08-18T02:12:01.598Z,12.30
2022-08-18T02:14:31.389Z,12.20
2022-08-18T02:17:01.689Z,12.20
2022-08-18T02:19:37.968Z,11.40
2022-08-18T02:22:07.572Z,11.90
2022-08-18T02:24:35.364Z,11.70
2022-08-18T02:27:02.339Z,11.50
2022-08-18T02:29:29.496Z,11.80
2022-08-18T02:31:56.389Z,11.70
2022-08-18T02:34:23.248Z,11.30
2022-08-18T02:36:50.843Z,12.00
2022-08-18T02:39:17.881Z,11.70
2022-08-18T02:41:44.791Z,12.40
2022-08-18T02:44:12.119Z,12.30
2022-08-18T02:46:39.793Z,11.40
2022-08-18T02:49:07.666Z,11.60
2022-08-18T02:51:35.669Z,11.80
2022-08-18T02:54:03.070Z,12.10
2022-08-18T02:56:40.413Z,11.20
2022-08-18T02:59:15.412Z,11.80
2022-08-18T03:01:48.090Z,11.80
2022-08-18T03:04:19.403Z,12.70
2022-08-18T03:06:47.195Z,12.60
2022-08-18T03:09:18.071Z,12.60
2022-08-18T03:11:45.992Z,12.20
2022-08-18T03:14:14.379Z,12.00
2022-08-18T03:16:45.766Z,12.50
2022-08-18T03:19:24.560Z,12.30
2022-08-18T03:21:52.255Z,12.70
2022-08-18T03:24:22.705Z,12.60
2022-08-18T03:26:52.486Z,12.30
2022-08-18T03:29:20.479Z,12.30
2022-08-18T03:31:48.257Z,12.30
2022-08-18T03:34:19.259Z,12.90
2022-08-18T03:36:48.413Z,12.20
2022-08-18T03:39:16.296Z,12.60
2022-08-18T03:41:58.416Z,13.10
2022-08-18T03:44:30.039Z,12.10
2022-08-18T03:46:57.239Z,12.10
2022-08-18T03:49:26.351Z,12.70
2022-08-18T03:51:54.115Z,12.00
2022-08-18T03:54:21.237Z,12.10
2022-08-18T03:56:49.137Z,12.40
2022-08-18T03:59:23.615Z,12.20
2022-08-18T04:01:54.615Z,12.00
2022-08-18T04:04:25.334Z,12.00
2022-08-18T04:06:57.929Z,11.80
2022-08-18T04:09:28.930Z,11.80
2022-08-18T04:12:03.278Z,13.00
2022-08-18T04:14:32.536Z,11.80
2022-08-18T04:16:59.858Z,12.90
2022-08-18T04:19:27.950Z,12.40
2022-08-18T04:21:57.501Z,11.90
2022-08-18T04:24:26.631Z,11.80
2022-08-18T04:26:57.125Z,12.40
2022-08-18T04:29:24.634Z,13.10
2022-08-18T04:31:52.872Z,12.00
2022-08-18T04:34:22.313Z,12.40
2022-08-18T04:36:54.307Z,12.90
2022-08-18T04:39:23.277Z,12.30
2022-08-18T04:41:50.250Z,11.80
2022-08-18T04:44:18.246Z,12.10
2022-08-18T04:46:52.557Z,12.50
2022-08-18T04:49:23.862Z,12.10
2022-08-18T04:52:36.851Z,12.10
2022-08-18T04:55:02.662Z,12.20
2022-08-18T04:57:33.829Z,12.10
2022-08-18T05:00:06.842Z,12.30
2022-08-18T05:02:34.542Z,12.30
2022-08-18T05:05:03.654Z,12.60
2022-08-18T05:07:30.600Z,12.40
2022-08-18T05:09:57.775Z,12.80
2022-08-18T05:12:26.180Z,12.80
2022-08-18T05:14:56.378Z,12.30
2022-08-18T05:17:28.005Z,12.90
2022-08-18T05:20:01.865Z,12.30
2022-08-18T05:22:31.154Z,11.80
2022-08-18T05:27:45.134Z,12.50
2022-08-18T05:30:14.502Z,12.10
2022-08-18T05:32:48.755Z,12.80
2022-08-18T05:35:25.260Z,13.20
2022-08-18T05:38:23.187Z,12.20
2022-08-18T05:41:14.071Z,12.70
2022-08-18T05:43:52.151Z,12.60
2022-08-18T05:46:25.763Z,12.40
2022-08-18T05:48:52.793Z,12.30
2022-08-18T05:51:30.814Z,12.50
2022-08-18T05:54:17.668Z,12.80
2022-08-18T05:56:46.629Z,12.80
2022-08-18T05:59:24.885Z,12.70
2022-08-18T06:02:04.324Z,12.40
2022-08-18T06:04:42.407Z,12.70
2022-08-18T06:07:17.984Z,12.40
2022-08-18T06:09:47.929Z,12.60
2022-08-18T06:12:37.398Z,12.60
2022-08-18T06:15:31.063Z,12.80
2022-08-18T06:18:21.585Z,12.40
2022-08-18T06:21:38.308Z,12.30
2022-08-18T06:24:36.136Z,12.50
2022-08-18T06:27:22.181Z,12.20
2022-08-18T06:30:12.160Z,12.70
2022-08-18T06:33:07.852Z,12.80
2022-08-18T06:35:54.689Z,12.60
2022-08-18T06:38:53.780Z,13.30
2022-08-18T06:41:40.772Z,12.10
2022-08-18T06:44:13.189Z,12.30
2022-08-18T06:47:05.972Z,12.30
2022-08-18T06:49:43.026Z,12.20
2022-08-18T06:52:37.439Z,12.80
2022-08-18T06:55:16.427Z,12.00
2022-08-18T06:57:58.115Z,12.20
2022-08-18T07:00:32.629Z,12.10
2022-08-18T07:03:12.556Z,12.50
2022-08-18T07:06:04.495Z,12.30
2022-08-18T07:08:37.128Z,12.90
2022-08-18T07:11:28.105Z,12.20
2022-08-18T07:14:45.491Z,13.20
2022-08-18T07:17:42.281Z,12.30
2022-08-18T07:20:25.680Z,12.40
2022-08-18T07:37:29.458Z,11.50
2022-08-18T07:40:05.521Z,12.70
2022-08-18T07:43:01.630Z,11.40
2022-08-18T07:49:37.347Z,11.20
2022-08-18T07:52:35.880Z,11.10
2022-08-18T07:59:01.480Z,10.60
2022-08-18T08:11:54.285Z,10.40
2022-08-18T08:24:02.859Z,10.10
2022-08-18T08:26:51.516Z,10.60
2022-08-18T08:30:11.817Z,9.50
2022-08-18T08:33:04.260Z,9.10
2022-08-18T08:35:47.212Z,9.70
2022-08-18T08:38:44.522Z,10.50
2022-08-18T08:51:05.814Z,8.70
2022-08-18T09:26:49.633Z,9.10
2022-08-18T09:30:16.071Z,9.10
2022-08-18T09:33:45.753Z,9.80
2022-08-18T09:36:28.565Z,9.70
2022-08-18T09:39:14.941Z,9.10
2022-08-18T09:47:13.936Z,8.90
2022-08-18T09:55:57.884Z,9.30
2022-08-18T09:58:29.451Z,9.30
2022-08-18T10:03:25.666Z,9.70
2022-08-18T10:11:08.998Z,9.20
2022-08-18T10:13:52.616Z,9.30
2022-08-18T10:16:57.685Z,9.80
2022-08-18T10:19:39.490Z,9.50
2022-08-18T10:22:10.417Z,9.60
2022-08-18T10:24:46.509Z,9.00
2022-08-18T10:27:44.002Z,10.40
2022-08-18T10:30:56.644Z,9.80
2022-08-18T10:34:29.882Z,9.90
2022-08-18T10:36:59.013Z,9.50
2022-08-18T10:39:58.934Z,10.10
2022-08-18T10:42:55.126Z,9.50
2022-08-18T10:45:30.851Z,10.10
2022-08-18T10:48:16.725Z,10.00
2022-08-18T10:50:53.911Z,9.60
2022-08-18T10:57:20.682Z,9.90
2022-08-18T10:59:55.525Z,9.00
2022-08-18T11:03:42.585Z,9.70
2022-08-18T11:06:32.527Z,9.60
2022-08-18T11:09:13.553Z,8.80
2022-08-18T11:11:53.585Z,9.70
2022-08-18T11:15:22.324Z,9.20
2022-08-18T11:18:36.336Z,9.10
2022-08-18T11:21:41.837Z,8.70
2022-08-18T11:24:14.665Z,9.00
2022-08-18T11:29:46.541Z,9.10
2022-08-18T11:33:05.965Z,9.10
2022-08-18T11:35:50.634Z,9.10
2022-08-18T11:38:23.602Z,8.90
2022-08-18T12:07:20.603Z,5.60
2022-08-18T12:10:28.745Z,5.70
2022-08-18T12:27:37.441Z,5.30
2022-08-18T12:30:30.334Z,5.50
2022-08-18T12:33:05.515Z,5.50
2022-08-18T12:35:38.440Z,5.00
2022-08-18T12:38:12.661Z,5.00
2022-08-18T12:40:52.741Z,5.60
2022-08-18T12:43:39.595Z,5.30
2022-08-18T12:46:11.942Z,5.60
2022-08-18T12:55:21.819Z,6.70
2022-08-18T12:57:53.318Z,5.90
2022-08-18T13:03:27.602Z,5.90
2022-08-18T13:06:02.502Z,6.70
2022-08-18T13:13:11.014Z,9.00
2022-08-18T13:15:10.617Z,6.50
2022-08-18T13:17:45.610Z,6.80
2022-08-18T13:20:17.145Z,6.80
2022-08-18T13:22:44.259Z,6.90
2022-08-18T13:25:32.559Z,6.60
2022-08-18T13:28:05.655Z,6.80
2022-08-18T13:30:33.131Z,6.60
2022-08-18T13:33:33.943Z,7.00
2022-08-18T13:35:54.170Z,7.10
2022-08-18T13:38:26.025Z,6.60
2022-08-18T13:40:58.791Z,7.10
2022-08-18T13:43:31.633Z,7.00
2022-08-18T13:45:59.453Z,7.40
2022-08-18T13:48:42.075Z,7.30
2022-08-18T13:51:28.983Z,7.40
2022-08-18T13:54:18.716Z,7.10
2022-08-18T14:26:13.240Z,8.30
2022-08-18T14:28:41.460Z,9.20
2022-08-18T14:31:11.322Z,9.50
2022-08-18T14:33:50.316Z,8.80
2022-08-18T14:36:19.975Z,9.00
2022-08-18T14:38:46.923Z,8.90
2022-08-18T14:41:19.121Z,7.60
2022-08-18T14:44:10.315Z,7.60
2022-08-18T14:46:34.266Z,7.50
2022-08-18T14:49:03.952Z,8.20
2022-08-18T14:51:33.514Z,7.90
2022-08-18T14:54:01.855Z,8.50
2022-08-18T14:56:29.246Z,8.10
2022-08-18T14:58:56.892Z,8.00
2022-08-18T15:01:24.343Z,8.00
2022-08-18T16:15:51.309Z,13.20
2022-08-18T16:18:20.894Z,23.20
2022-08-18T16:20:48.507Z,17.70
2022-08-18T16:23:19.677Z,16.00
2022-08-18T16:28:51.505Z,20.80
2022-08-18T16:31:24.493Z,19.80
2022-08-18T16:33:55.674Z,21.00
2022-08-18T16:36:26.569Z,19.00
2022-08-18T16:38:58.049Z,14.10
2022-08-18T16:41:26.366Z,23.20
2022-08-18T16:43:54.239Z,24.80
2022-08-18T16:46:25.823Z,18.00
2022-08-18T16:48:57.925Z,14.70
2022-08-18T16:51:27.508Z,14.40
2022-08-18T16:53:54.799Z,15.30
2022-08-18T16:56:26.045Z,15.50
2022-08-18T16:59:48.846Z,15.60
2022-08-18T17:02:34.598Z,16.70
2022-08-18T17:05:28.799Z,16.10
2022-08-18T17:07:56.257Z,21.40
2022-08-18T17:10:42.785Z,25.20
2022-08-18T17:13:19.395Z,22.60
2022-08-18T17:16:46.223Z,18.80
2022-08-18T17:19:08.911Z,12.40
2022-08-18T17:52:50.830Z,66.90
2022-08-18T18:01:48.854Z,34.00
2022-08-18T18:36:59.726Z,14.70
2022-08-18T18:39:59.746Z,15.50
2022-08-18T18:42:55.628Z,15.10
2022-08-18T18:46:29.554Z,15.00
2022-08-18T18:49:09.857Z,14.00
2022-08-18T18:52:05.832Z,13.30
2022-08-18T18:57:12.724Z,13.60
2022-08-18T18:59:28.060Z,11.60
2022-08-18T19:02:34.685Z,10.60
2022-08-18T19:05:19.580Z,9.80
2022-08-18T19:08:33.070Z,8.90
2022-08-18T19:12:00.940Z,8.80
2022-08-18T19:15:00.311Z,9.00
2022-08-18T19:17:34.839Z,9.10
2022-08-18T19:20:09.562Z,9.70
2022-08-18T19:23:12.592Z,10.10
2022-08-18T19:26:08.238Z,10.30
2022-08-18T19:29:01.117Z,8.30
2022-08-18T19:31:44.498Z,8.60
2022-08-18T19:36:02.891Z,8.60
2022-08-18T19:42:25.133Z,8.60
2022-08-18T19:45:16.446Z,8.70
2022-08-18T19:48:54.667Z,8.90
2022-08-18T19:52:45.812Z,8.30
2022-08-18T19:55:22.222Z,8.00
2022-08-18T19:58:08.729Z,7.70
2022-08-18T20:00:57.060Z,7.80
2022-08-18T20:03:42.929Z,8.10
2022-08-18T20:06:35.139Z,8.30
2022-08-18T20:09:18.318Z,9.20
2022-08-18T20:12:15.625Z,10.10
2022-08-18T20:14:59.975Z,10.10
2022-08-18T20:17:29.176Z,10.30
2022-08-18T20:22:42.784Z,9.60
2022-08-18T20:25:17.049Z,9.70
2022-08-18T20:27:53.231Z,9.50
2022-08-18T20:31:04.592Z,9.20
2022-08-18T20:52:57.834Z,8.20
2022-08-18T21:00:46.748Z,8.40
2022-08-18T21:38:20.083Z,7.50
2022-08-18T21:40:49.924Z,7.70
2022-08-18T21:43:49.155Z,8.00
2022-08-18T21:46:28.640Z,7.60
2022-08-18T21:49:00.231Z,7.50
2022-08-18T21:51:41.422Z,7.10
2022-08-18T21:55:12.325Z,7.40
2022-08-18T21:58:02.524Z,7.70
2022-08-18T22:00:32.999Z,7.60
2022-08-18T22:03:25.890Z,8.10
2022-08-18T22:06:01.488Z,7.90
2022-08-18T22:08:49.864Z,7.50
2022-08-18T22:11:52.001Z,7.70
2022-08-18T22:14:28.119Z,7.50
2022-08-18T22:17:33.186Z,7.60
2022-08-18T22:20:35.644Z,7.70
2022-08-18T22:23:33.834Z,7.90
2022-08-18T22:26:17.754Z,7.80
2022-08-18T22:29:06.959Z,7.70
2022-08-18T22:31:39.841Z,8.00
2022-08-18T22:34:13.731Z,7.80
2022-08-18T22:36:45.939Z,7.90
2022-08-18T22:39:22.596Z,8.40
2022-08-18T22:41:49.706Z,8.30
2022-08-18T22:44:16.804Z,8.00
2022-08-18T22:46:43.803Z,8.70
2022-08-18T22:49:10.949Z,8.50
2022-08-18T22:51:38.434Z,8.50
2022-08-18T22:54:09.440Z,8.10
2022-08-18T22:56:38.459Z,8.70
2022-08-18T22:59:15.719Z,8.60
2022-08-18T23:01:46.454Z,8.20
2022-08-18T23:04:15.561Z,8.10
2022-08-18T23:06:50.570Z,8.10
2022-08-18T23:09:30.201Z,8.00
2022-08-18T23:12:04.479Z,8.40
2022-08-18T23:14:33.604Z,8.20
2022-08-18T23:17:02.101Z,8.50
2022-08-18T23:19:31.558Z,8.00
2022-08-18T23:22:00.619Z,7.90
2022-08-18T23:24:28.417Z,8.50
2022-08-18T23:26:57.397Z,8.00
2022-08-18T23:29:24.473Z,8.50
2022-08-18T23:31:52.019Z,8.50
2022-08-18T23:34:22.921Z,9.90
2022-08-18T23:37:00.465Z,10.40
2022-08-18T23:39:30.333Z,9.00
2022-08-18T23:41:57.729Z,9.20
2022-08-18T23:44:27.794Z,8.50
2022-08-18T23:47:00.006Z,8.70
2022-08-18T23:49:29.939Z,8.30
2022-08-18T23:51:58.505Z,8.20
2022-08-18T23:54:35.488Z,8.50
2022-08-18T23:57:02.761Z,8.70
2022-08-18T23:59:29.893Z,8.80
